createdAt,value
2022-11-28T00:00:03.662Z,22.20
2022-11-28T00:00:13.676Z,21.40
2022-11-28T00:00:23.657Z,21.80
2022-11-28T00:00:33.652Z,23.10
2022-11-28T00:00:43.657Z,22.90
2022-11-28T00:00:53.651Z,22.40
2022-11-28T00:01:03.687Z,21.50
2022-11-28T00:01:14.407Z,20.90
2022-11-28T00:01:23.649Z,21.10
2022-11-28T00:01:33.646Z,21.80
2022-11-28T00:01:43.665Z,22.80
2022-11-28T00:01:53.749Z,23.40
2022-11-28T00:02:03.792Z,23.30
2022-11-28T00:02:13.805Z,22.80
2022-11-28T00:02:23.803Z,22.80
2022-11-28T00:02:33.771Z,21.90
2022-11-28T00:02:43.883Z,21.90
2022-11-28T00:02:53.761Z,20.80
2022-11-28T00:03:03.857Z,21.50
2022-11-28T00:03:13.813Z,20.70
2022-11-28T00:03:23.645Z,20.40
2022-11-28T00:03:33.685Z,20.10
2022-11-28T00:03:43.681Z,20.50
2022-11-28T00:03:53.748Z,20.50
2022-11-28T00:04:03.766Z,22.40
2022-11-28T00:04:13.628Z,22.90
2022-11-28T00:04:23.642Z,23.70
2022-11-28T00:04:33.661Z,23.00
2022-11-28T00:04:44.056Z,22.30
2022-11-28T00:04:53.637Z,22.40
2022-11-28T00:05:03.630Z,22.80
2022-11-28T00:05:13.622Z,23.40
2022-11-28T00:05:24.394Z,23.40
2022-11-28T00:05:33.650Z,21.80
2022-11-28T00:05:46.979Z,22.00
2022-11-28T00:05:53.639Z,21.10
2022-11-28T00:06:03.634Z,21.50
2022-11-28T00:06:13.692Z,20.70
2022-11-28T00:06:23.637Z,21.30
2022-11-28T00:06:33.688Z,21.70
2022-11-28T00:06:43.625Z,21.90
2022-11-28T00:06:53.638Z,21.90
2022-11-28T00:07:03.617Z,21.60
2022-11-28T00:07:13.664Z,22.30
2022-11-28T00:07:23.713Z,22.40
2022-11-28T00:07:33.658Z,22.70
2022-11-28T00:07:43.686Z,21.80
2022-11-28T00:07:53.686Z,22.10
2022-11-28T00:08:03.676Z,21.70
2022-11-28T00:08:13.687Z,22.50
2022-11-28T00:08:23.645Z,22.10
2022-11-28T00:08:34.353Z,22.60
2022-11-28T00:08:43.613Z,21.60
2022-11-28T00:08:53.705Z,22.10
2022-11-28T00:09:03.613Z,21.40
2022-11-28T00:09:13.614Z,21.40
2022-11-28T00:09:23.607Z,20.30
2022-11-28T00:09:34.364Z,19.90
2022-11-28T00:09:43.637Z,20.00
2022-11-28T00:09:53.613Z,22.20
2022-11-28T00:10:03.604Z,23.00
2022-11-28T00:10:13.623Z,22.90
2022-11-28T00:10:23.599Z,22.10
2022-11-28T00:10:33.615Z,22.60
2022-11-28T00:10:43.635Z,22.90
2022-11-28T00:10:53.602Z,21.60
2022-11-28T00:11:03.610Z,21.20
2022-11-28T00:11:13.637Z,21.70
2022-11-28T00:11:23.667Z,21.90
2022-11-28T00:11:33.615Z,21.20
2022-11-28T00:11:43.730Z,20.20
2022-11-28T00:11:53.607Z,20.80
2022-11-28T00:12:03.619Z,21.30
2022-11-28T00:12:13.596Z,21.40
2022-11-28T00:12:24.386Z,21.40
2022-11-28T00:12:33.610Z,22.70
2022-11-28T00:12:43.591Z,23.00
2022-11-28T00:12:53.610Z,22.40
2022-11-28T00:13:03.612Z,21.50
2022-11-28T00:13:13.594Z,22.30
2022-11-28T00:13:23.595Z,22.20
2022-11-28T00:13:33.640Z,21.30
2022-11-28T00:13:43.648Z,20.40
2022-11-28T00:13:53.597Z,20.50
2022-11-28T00:14:03.623Z,21.10
2022-11-28T00:14:13.595Z,21.30
2022-11-28T00:14:23.602Z,21.40
2022-11-28T00:14:33.619Z,22.00
2022-11-28T00:14:43.871Z,21.10
2022-11-28T00:14:53.615Z,22.40
2022-11-28T00:15:03.611Z,21.30
2022-11-28T00:15:13.665Z,21.90
2022-11-28T00:15:23.611Z,20.60
2022-11-28T00:15:33.741Z,21.90
2022-11-28T00:15:43.643Z,21.40
2022-11-28T00:15:53.698Z,21.40
2022-11-28T00:16:03.690Z,21.00
2022-11-28T00:16:13.639Z,21.90
2022-11-28T00:16:23.732Z,22.70
2022-11-28T00:16:33.865Z,21.70
2022-11-28T00:16:43.578Z,21.30
2022-11-28T00:16:53.599Z,20.40
2022-11-28T00:17:03.585Z,20.90
2022-11-28T00:17:13.587Z,20.70
2022-11-28T00:17:23.596Z,21.10
2022-11-28T00:17:33.666Z,20.90
2022-11-28T00:17:43.576Z,20.90
2022-11-28T00:17:53.603Z,21.20
2022-11-28T00:18:03.571Z,21.70
2022-11-28T00:18:13.587Z,22.00
2022-11-28T00:18:23.603Z,20.90
2022-11-28T00:18:33.569Z,22.00
2022-11-28T00:18:43.577Z,21.80
2022-11-28T00:18:53.610Z,22.50
2022-11-28T00:19:03.574Z,20.40
2022-11-28T00:19:13.573Z,21.40
2022-11-28T00:19:24.354Z,21.50
2022-11-28T00:19:33.585Z,22.70
2022-11-28T00:19:43.601Z,21.50
2022-11-28T00:19:53.568Z,21.90
2022-11-28T00:20:03.579Z,21.80
2022-11-28T00:20:13.616Z,23.00
2022-11-28T00:20:23.576Z,22.00
2022-11-28T00:20:33.570Z,20.70
2022-11-28T00:20:43.601Z,19.80
2022-11-28T00:20:54.360Z,20.30
2022-11-28T00:21:03.570Z,21.40
2022-11-28T00:21:13.608Z,21.60
2022-11-28T00:21:23.563Z,20.30
2022-11-28T00:21:33.572Z,20.50
2022-11-28T00:21:43.616Z,19.80
2022-11-28T00:21:53.644Z,20.40
2022-11-28T00:22:04.387Z,20.70
2022-11-28T00:22:13.630Z,21.00
2022-11-28T00:22:23.550Z,22.30
2022-11-28T00:22:33.590Z,22.20
2022-11-28T00:22:43.561Z,22.60
2022-11-28T00:22:53.552Z,22.00
2022-11-28T00:23:03.589Z,21.90
2022-11-28T00:23:13.610Z,22.20
2022-11-28T00:23:23.551Z,22.50
2022-11-28T00:23:33.576Z,22.40
2022-11-28T00:23:43.549Z,21.50
2022-11-28T00:23:53.553Z,21.20
2022-11-28T00:24:03.590Z,20.30
2022-11-28T00:24:13.550Z,20.20
2022-11-28T00:24:23.700Z,20.30
2022-11-28T00:24:33.543Z,21.20
2022-11-28T00:24:43.926Z,21.80
2022-11-28T00:24:53.570Z,21.50
2022-11-28T00:25:03.745Z,20.40
2022-11-28T00:25:13.546Z,19.50
2022-11-28T00:25:23.561Z,19.20
2022-11-28T00:25:33.601Z,19.70
2022-11-28T00:25:43.555Z,20.80
2022-11-28T00:25:53.558Z,20.60
2022-11-28T00:26:03.537Z,21.00
2022-11-28T00:26:13.541Z,20.30
2022-11-28T00:26:23.571Z,20.50
2022-11-28T00:26:33.558Z,20.70
2022-11-28T00:26:43.561Z,20.90
2022-11-28T00:26:55.012Z,21.80
2022-11-28T00:27:03.539Z,21.20
2022-11-28T00:27:13.542Z,21.00
2022-11-28T00:27:23.564Z,20.10
2022-11-28T00:27:33.534Z,20.60
2022-11-28T00:27:43.547Z,21.80
2022-11-28T00:27:53.540Z,21.90
2022-11-28T00:28:03.534Z,22.20
2022-11-28T00:28:13.536Z,21.10
2022-11-28T00:28:23.525Z,20.50
2022-11-28T00:28:33.532Z,19.60
2022-11-28T00:28:43.527Z,20.40
2022-11-28T00:28:53.536Z,20.80
2022-11-28T00:29:03.525Z,22.00
2022-11-28T00:29:13.630Z,20.80
2022-11-28T00:29:23.552Z,20.90
2022-11-28T00:29:33.532Z,20.60
2022-11-28T00:29:43.559Z,20.70
2022-11-28T00:29:53.528Z,21.30
2022-11-28T00:30:03.536Z,21.30
2022-11-28T00:30:13.528Z,21.40
2022-11-28T00:30:23.559Z,20.80
2022-11-28T00:30:34.359Z,20.20
2022-11-28T00:30:43.525Z,20.80
2022-11-28T00:30:53.518Z,21.10
2022-11-28T00:31:03.550Z,21.80
2022-11-28T00:31:13.560Z,20.90
2022-11-28T00:31:23.638Z,20.50
2022-11-28T00:31:33.563Z,19.40
2022-11-28T00:31:43.792Z,19.30
2022-11-28T00:31:53.540Z,20.00
2022-11-28T00:32:03.673Z,20.20
2022-11-28T00:32:13.572Z,20.00
2022-11-28T00:32:23.514Z,20.40
2022-11-28T00:32:33.539Z,20.30
2022-11-28T00:32:43.634Z,20.60
2022-11-28T00:32:53.515Z,19.90
2022-11-28T00:33:03.604Z,20.50
2022-11-28T00:33:13.511Z,19.60
2022-11-28T00:33:23.553Z,20.00
2022-11-28T00:33:33.697Z,19.50
2022-11-28T00:33:43.512Z,20.00
2022-11-28T00:33:53.517Z,20.10
2022-11-28T00:34:04.455Z,20.80
2022-11-28T00:34:13.522Z,20.40
2022-11-28T00:34:23.512Z,20.70
2022-11-28T00:34:33.523Z,20.60
2022-11-28T00:34:43.837Z,20.20
2022-11-28T00:34:53.515Z,19.70
2022-11-28T00:35:03.513Z,20.10
2022-11-28T00:35:13.544Z,20.50
2022-11-28T00:35:23.531Z,20.90
2022-11-28T00:35:33.497Z,20.20
2022-11-28T00:35:43.495Z,20.10
2022-11-28T00:35:53.610Z,19.80
2022-11-28T00:36:03.506Z,19.40
2022-11-28T00:36:13.567Z,19.50
2022-11-28T00:36:23.500Z,19.20
2022-11-28T00:36:33.527Z,19.90
2022-11-28T00:36:43.501Z,20.20
2022-11-28T00:36:53.498Z,20.40
2022-11-28T00:37:03.495Z,20.50
2022-11-28T00:37:13.541Z,20.80
2022-11-28T00:37:23.488Z,20.40
2022-11-28T00:37:34.360Z,19.80
2022-11-28T00:37:43.497Z,19.50
2022-11-28T00:37:53.497Z,20.00
2022-11-28T00:38:03.490Z,21.00
2022-11-28T00:38:13.509Z,21.40
2022-11-28T00:38:23.483Z,22.50
2022-11-28T00:38:33.495Z,22.70
2022-11-28T00:38:43.569Z,22.20
2022-11-28T00:38:53.498Z,20.60
2022-11-28T00:39:04.434Z,19.80
2022-11-28T00:39:13.488Z,19.70
2022-11-28T00:39:23.483Z,20.70
2022-11-28T00:39:33.495Z,20.20
2022-11-28T00:39:43.490Z,20.00
2022-11-28T00:39:53.481Z,20.60
2022-11-28T00:40:03.490Z,21.70
2022-11-28T00:40:13.493Z,22.90
2022-11-28T00:40:23.520Z,21.50
2022-11-28T00:40:33.655Z,20.50
2022-11-28T00:40:43.473Z,20.00
2022-11-28T00:40:53.486Z,20.30
2022-11-28T00:41:03.477Z,20.80
2022-11-28T00:41:13.483Z,20.30
2022-11-28T00:41:23.472Z,20.00
2022-11-28T00:41:33.491Z,19.90
2022-11-28T00:41:43.487Z,19.70
2022-11-28T00:41:53.476Z,19.60
2022-11-28T00:42:03.581Z,19.00
2022-11-28T00:42:13.470Z,19.80
2022-11-28T00:42:23.519Z,20.20
2022-11-28T00:42:33.471Z,21.90
2022-11-28T00:42:43.465Z,21.40
2022-11-28T00:42:53.470Z,20.60
2022-11-28T00:43:03.481Z,19.60
2022-11-28T00:43:13.545Z,20.10
2022-11-28T00:43:23.463Z,19.80
2022-11-28T00:43:33.515Z,20.40
2022-11-28T00:43:43.487Z,20.70
2022-11-28T00:43:53.467Z,20.70
2022-11-28T00:44:03.466Z,20.00
2022-11-28T00:44:13.485Z,19.30
2022-11-28T00:44:23.487Z,20.60
2022-11-28T00:44:33.488Z,20.70
2022-11-28T00:44:43.857Z,20.60
2022-11-28T00:44:53.473Z,20.10
2022-11-28T00:45:03.457Z,19.80
2022-11-28T00:45:13.461Z,20.30
2022-11-28T00:45:23.463Z,20.20
2022-11-28T00:45:33.495Z,20.80
2022-11-28T00:45:43.582Z,20.10
2022-11-28T00:45:53.571Z,19.40
2022-11-28T00:46:03.516Z,17.90
2022-11-28T00:46:13.624Z,18.50
2022-11-28T00:46:23.577Z,18.70
2022-11-28T00:46:33.480Z,19.30
2022-11-28T00:46:43.468Z,18.90
2022-11-28T00:46:53.449Z,20.10
2022-11-28T00:47:03.448Z,20.50
2022-11-28T00:47:13.449Z,20.60
2022-11-28T00:47:23.508Z,20.20
2022-11-28T00:47:33.498Z,19.80
2022-11-28T00:47:43.451Z,20.50
2022-11-28T00:47:53.445Z,20.40
2022-11-28T00:48:03.457Z,20.60
2022-11-28T00:48:13.454Z,20.00
2022-11-28T00:48:23.446Z,20.30
2022-11-28T00:48:33.454Z,20.40
2022-11-28T00:48:43.446Z,21.00
2022-11-28T00:48:53.452Z,20.20
2022-11-28T00:49:03.456Z,20.50
2022-11-28T00:49:13.453Z,19.70
2022-11-28T00:49:23.453Z,19.10
2022-11-28T00:49:33.460Z,18.50
2022-11-28T00:49:43.490Z,18.60
2022-11-28T00:49:53.446Z,18.50
2022-11-28T00:50:03.450Z,18.60
2022-11-28T00:50:14.363Z,19.30
2022-11-28T00:50:23.434Z,20.60
2022-11-28T00:50:33.439Z,20.30
2022-11-28T00:50:43.435Z,20.30
2022-11-28T00:50:53.436Z,20.80
2022-11-28T00:51:03.475Z,22.00
2022-11-28T00:51:13.440Z,21.90
2022-11-28T00:51:23.436Z,20.40
2022-11-28T00:51:33.496Z,19.00
2022-11-28T00:51:43.437Z,18.30
2022-11-28T00:51:53.440Z,19.10
2022-11-28T00:52:03.579Z,20.00
2022-11-28T00:52:13.444Z,20.90
2022-11-28T00:52:23.449Z,20.40
2022-11-28T00:52:33.435Z,20.30
2022-11-28T00:52:43.757Z,19.60
2022-11-28T00:52:53.437Z,18.90
2022-11-28T00:53:03.422Z,17.70
2022-11-28T00:53:13.421Z,18.70
2022-11-28T00:53:23.456Z,19.70
2022-11-28T00:53:33.421Z,21.30
2022-11-28T00:53:43.423Z,20.50
2022-11-28T00:53:53.423Z,19.70
2022-11-28T00:54:03.534Z,18.20
2022-11-28T00:54:13.426Z,18.10
2022-11-28T00:54:23.452Z,19.00
2022-11-28T00:54:33.431Z,21.00
2022-11-28T00:54:43.805Z,22.10
2022-11-28T00:54:53.436Z,21.50
2022-11-28T00:55:03.422Z,20.30
2022-11-28T00:55:13.424Z,19.20
2022-11-28T00:55:23.456Z,18.70
2022-11-28T00:55:33.425Z,19.50
2022-11-28T00:55:44.365Z,19.40
2022-11-28T00:55:53.417Z,19.30
2022-11-28T00:56:03.513Z,18.80
2022-11-28T00:56:14.368Z,19.00
2022-11-28T00:56:23.435Z,20.50
2022-11-28T00:56:33.410Z,19.90
2022-11-28T00:56:43.442Z,19.90
2022-11-28T00:56:53.407Z,19.30
2022-11-28T00:57:03.412Z,19.20
2022-11-28T00:57:13.607Z,18.90
2022-11-28T00:57:23.410Z,18.70
2022-11-28T00:57:33.412Z,18.40
2022-11-28T00:57:43.416Z,18.80
2022-11-28T00:57:53.474Z,18.80
2022-11-28T00:58:03.419Z,19.00
2022-11-28T00:58:14.437Z,18.60
2022-11-28T00:58:23.495Z,19.10
2022-11-28T00:58:34.362Z,19.50
2022-11-28T00:58:43.432Z,19.20
2022-11-28T00:58:53.405Z,18.30
2022-11-28T00:59:03.414Z,18.30
2022-11-28T00:59:13.401Z,18.40
2022-11-28T00:59:23.398Z,18.70
2022-11-28T00:59:33.418Z,18.70
2022-11-28T00:59:43.397Z,19.90
2022-11-28T00:59:53.401Z,20.00
2022-11-28T01:00:03.420Z,19.70
2022-11-28T01:00:13.398Z,18.20
2022-11-28T01:00:23.401Z,18.70
2022-11-28T01:00:33.428Z,18.60
2022-11-28T01:00:43.456Z,18.90
2022-11-28T01:00:53.471Z,18.50
2022-11-28T01:01:03.487Z,18.30
2022-11-28T01:01:13.477Z,18.00
2022-11-28T01:01:23.580Z,17.70
2022-11-28T01:01:33.462Z,18.40
2022-11-28T01:01:43.534Z,19.30
2022-11-28T01:01:53.450Z,18.70
2022-11-28T01:02:03.454Z,18.10
2022-11-28T01:02:13.511Z,17.70
2022-11-28T01:02:23.479Z,19.10
2022-11-28T01:02:33.459Z,19.10
2022-11-28T01:02:43.494Z,19.40
2022-11-28T01:02:53.387Z,18.20
2022-11-28T01:03:03.527Z,18.30
2022-11-28T01:03:13.388Z,18.00
2022-11-28T01:03:23.388Z,18.60
2022-11-28T01:03:33.387Z,17.80
2022-11-28T01:03:43.380Z,17.50
2022-11-28T01:03:54.369Z,18.50
2022-11-28T01:04:03.382Z,19.00
2022-11-28T01:04:13.465Z,18.90
2022-11-28T01:04:23.389Z,17.90
2022-11-28T01:04:33.383Z,18.20
2022-11-28T01:04:43.727Z,19.00
2022-11-28T01:04:53.375Z,19.20
2022-11-28T01:05:03.392Z,19.60
2022-11-28T01:05:13.404Z,18.70
2022-11-28T01:05:23.373Z,17.70
2022-11-28T01:05:33.442Z,17.10
2022-11-28T01:05:43.388Z,17.70
2022-11-28T01:05:53.436Z,18.30
2022-11-28T01:06:03.376Z,18.40
2022-11-28T01:06:13.374Z,18.60
2022-11-28T01:06:23.378Z,18.80
2022-11-28T01:06:33.377Z,19.10
2022-11-28T01:06:43.373Z,18.60
2022-11-28T01:06:53.367Z,18.50
2022-11-28T01:07:03.380Z,18.40
2022-11-28T01:07:14.431Z,19.40
2022-11-28T01:07:23.447Z,19.50
2022-11-28T01:07:33.432Z,19.30
2022-11-28T01:07:43.414Z,19.20
2022-11-28T01:07:53.440Z,19.50
2022-11-28T01:08:03.390Z,19.70
2022-11-28T01:08:13.438Z,19.10
2022-11-28T01:08:23.449Z,18.20
2022-11-28T01:08:33.364Z,17.50
2022-11-28T01:08:43.395Z,17.40
2022-11-28T01:08:53.357Z,17.90
2022-11-28T01:09:03.367Z,18.30
2022-11-28T01:09:13.396Z,18.50
2022-11-28T01:09:23.888Z,18.30
2022-11-28T01:09:33.365Z,18.50
2022-11-28T01:09:43.411Z,17.90
2022-11-28T01:09:53.365Z,17.80
2022-11-28T01:10:03.365Z,17.60
2022-11-28T01:10:13.357Z,18.00
2022-11-28T01:10:23.365Z,18.00
2022-11-28T01:10:33.369Z,18.00
2022-11-28T01:10:43.357Z,17.90
2022-11-28T01:10:53.364Z,18.30
2022-11-28T01:11:03.368Z,17.70
2022-11-28T01:11:13.358Z,18.00
2022-11-28T01:11:23.375Z,17.60
2022-11-28T01:11:33.346Z,18.30
2022-11-28T01:11:43.354Z,18.50
2022-11-28T01:11:53.347Z,18.60
2022-11-28T01:12:03.350Z,19.10
2022-11-28T01:12:13.349Z,19.00
2022-11-28T01:12:23.531Z,18.80
2022-11-28T01:12:33.873Z,18.20
2022-11-28T01:12:43.357Z,18.20
2022-11-28T01:12:53.346Z,18.60
2022-11-28T01:13:03.342Z,19.00
2022-11-28T01:13:13.350Z,18.60
2022-11-28T01:13:23.400Z,18.10
2022-11-28T01:13:33.354Z,17.60
2022-11-28T01:13:43.373Z,17.80
2022-11-28T01:13:53.357Z,18.40
2022-11-28T01:14:03.341Z,18.20
2022-11-28T01:14:13.358Z,18.30
2022-11-28T01:14:23.411Z,17.70
2022-11-28T01:14:33.339Z,18.00
2022-11-28T01:14:43.486Z,17.90
2022-11-28T01:14:53.351Z,18.20
2022-11-28T01:15:03.335Z,18.10
2022-11-28T01:15:13.337Z,17.50
2022-11-28T01:15:23.332Z,18.00
2022-11-28T01:15:33.349Z,18.40
2022-11-28T01:15:43.349Z,18.30
2022-11-28T01:15:53.363Z,18.30
2022-11-28T01:16:03.386Z,18.20
2022-11-28T01:16:13.376Z,18.70
2022-11-28T01:16:23.441Z,19.10
2022-11-28T01:16:33.425Z,18.70
2022-11-28T01:16:43.991Z,19.10
2022-11-28T01:16:53.325Z,18.20
2022-11-28T01:17:03.329Z,19.20
2022-11-28T01:17:13.342Z,18.90
2022-11-28T01:17:23.322Z,20.70
2022-11-28T01:17:33.321Z,19.90
2022-11-28T01:17:43.325Z,19.50
2022-11-28T01:17:53.325Z,18.60
2022-11-28T01:18:03.346Z,18.30
2022-11-28T01:18:13.320Z,18.50
2022-11-28T01:18:23.326Z,18.50
2022-11-28T01:18:33.389Z,21.20
2022-11-28T01:18:43.322Z,21.70
2022-11-28T01:18:53.909Z,22.70
2022-11-28T01:19:03.329Z,20.40
2022-11-28T01:19:13.315Z,20.30
2022-11-28T01:19:23.330Z,19.50
2022-11-28T01:19:33.359Z,19.40
2022-11-28T01:19:43.316Z,19.80
2022-11-28T01:19:53.327Z,21.10
2022-11-28T01:20:03.330Z,21.10
2022-11-28T01:20:13.310Z,21.00
2022-11-28T01:20:23.327Z,19.40
2022-11-28T01:20:33.324Z,19.00
2022-11-28T01:20:43.308Z,18.00
2022-11-28T01:20:53.308Z,18.60
2022-11-28T01:21:03.307Z,18.40
2022-11-28T01:21:13.377Z,18.90
2022-11-28T01:21:23.312Z,19.40
2022-11-28T01:21:33.306Z,20.80
2022-11-28T01:21:43.320Z,21.20
2022-11-28T01:21:53.315Z,20.00
2022-11-28T01:22:03.339Z,18.40
2022-11-28T01:22:13.323Z,17.90
2022-11-28T01:22:23.303Z,18.50
2022-11-28T01:22:33.327Z,19.30
2022-11-28T01:22:43.329Z,19.60
2022-11-28T01:22:53.306Z,20.10
2022-11-28T01:23:03.307Z,20.30
2022-11-28T01:23:13.298Z,20.20
2022-11-28T01:23:23.319Z,19.50
2022-11-28T01:23:33.303Z,18.70
2022-11-28T01:23:43.458Z,20.10
2022-11-28T01:23:53.885Z,20.20
2022-11-28T01:24:03.302Z,20.90
2022-11-28T01:24:13.333Z,19.70
2022-11-28T01:24:23.296Z,20.10
2022-11-28T01:24:33.303Z,20.00
2022-11-28T01:24:43.527Z,20.30
2022-11-28T01:24:53.314Z,20.70
2022-11-28T01:25:03.303Z,20.40
2022-11-28T01:25:13.312Z,20.60
2022-11-28T01:25:23.877Z,20.10
2022-11-28T01:25:33.321Z,20.40
2022-11-28T01:25:43.297Z,19.40
2022-11-28T01:25:53.295Z,19.10
2022-11-28T01:26:03.318Z,21.00
2022-11-28T01:26:13.293Z,21.20
2022-11-28T01:26:23.870Z,21.70
2022-11-28T01:26:33.354Z,19.50
2022-11-28T01:26:43.298Z,21.30
2022-11-28T01:26:53.291Z,20.40
2022-11-28T01:27:03.289Z,20.20
2022-11-28T01:27:13.289Z,19.70
2022-11-28T01:27:23.295Z,20.70
2022-11-28T01:27:33.399Z,21.00
2022-11-28T01:27:43.304Z,19.90
2022-11-28T01:27:53.884Z,19.70
2022-11-28T01:28:03.294Z,19.50
2022-11-28T01:28:13.276Z,19.40
2022-11-28T01:28:23.285Z,19.40
2022-11-28T01:28:33.279Z,19.50
2022-11-28T01:28:43.391Z,19.80
2022-11-28T01:28:53.346Z,20.00
2022-11-28T01:29:03.286Z,20.50
2022-11-28T01:29:13.272Z,20.90
2022-11-28T01:29:23.275Z,20.10
2022-11-28T01:29:33.275Z,19.40
2022-11-28T01:29:43.322Z,19.00
2022-11-28T01:29:53.279Z,20.70
2022-11-28T01:30:03.286Z,21.00
2022-11-28T01:30:13.284Z,21.00
2022-11-28T01:30:23.270Z,20.10
2022-11-28T01:30:33.277Z,19.80
2022-11-28T01:30:43.892Z,19.90
2022-11-28T01:30:53.267Z,18.90
2022-11-28T01:31:03.376Z,19.40
2022-11-28T01:31:13.351Z,19.00
2022-11-28T01:31:23.326Z,19.00
2022-11-28T01:31:33.394Z,18.10
2022-11-28T01:31:43.336Z,18.70
2022-11-28T01:31:53.405Z,18.90
2022-11-28T01:32:03.315Z,19.10
2022-11-28T01:32:13.275Z,18.70
2022-11-28T01:32:23.278Z,20.20
2022-11-28T01:32:33.259Z,20.00
2022-11-28T01:32:43.299Z,20.10
2022-11-28T01:32:53.289Z,19.10
2022-11-28T01:33:03.261Z,19.80
2022-11-28T01:33:13.881Z,20.50
2022-11-28T01:33:23.280Z,20.70
2022-11-28T01:33:33.320Z,20.70
2022-11-28T01:33:43.256Z,20.50
2022-11-28T01:33:53.279Z,20.00
2022-11-28T01:34:03.332Z,21.40
2022-11-28T01:34:13.254Z,21.70
2022-11-28T01:34:23.294Z,22.70
2022-11-28T01:34:33.260Z,21.10
2022-11-28T01:34:43.503Z,20.50
2022-11-28T01:34:53.302Z,20.30
2022-11-28T01:35:03.890Z,21.50
2022-11-28T01:35:13.258Z,21.30
2022-11-28T01:35:23.259Z,21.10
2022-11-28T01:35:33.262Z,20.30
2022-11-28T01:35:43.278Z,20.00
2022-11-28T01:35:53.252Z,19.70
2022-11-28T01:36:03.252Z,19.80
2022-11-28T01:36:13.244Z,19.70
2022-11-28T01:36:23.249Z,19.90
2022-11-28T01:36:33.256Z,20.40
2022-11-28T01:36:43.269Z,20.70
2022-11-28T01:36:53.249Z,20.10
2022-11-28T01:37:03.247Z,19.70
2022-11-28T01:37:13.294Z,20.00
2022-11-28T01:37:23.261Z,20.70
2022-11-28T01:37:33.917Z,20.80
2022-11-28T01:37:43.903Z,20.30
2022-11-28T01:37:53.268Z,19.70
2022-11-28T01:38:03.246Z,19.00
2022-11-28T01:38:13.272Z,19.50
2022-11-28T01:38:23.237Z,19.50
2022-11-28T01:38:33.952Z,20.40
2022-11-28T01:38:43.238Z,21.00
2022-11-28T01:38:53.241Z,21.90
2022-11-28T01:39:03.259Z,22.30
2022-11-28T01:39:13.344Z,22.80
2022-11-28T01:39:23.256Z,22.20
2022-11-28T01:39:33.229Z,22.80
2022-11-28T01:39:43.240Z,20.50
2022-11-28T01:39:53.240Z,20.00
2022-11-28T01:40:03.246Z,18.70
2022-11-28T01:40:13.245Z,19.80
2022-11-28T01:40:23.250Z,19.80
2022-11-28T01:40:33.375Z,20.10
2022-11-28T01:40:43.234Z,20.70
2022-11-28T01:40:53.231Z,20.90
2022-11-28T01:41:03.234Z,20.90
2022-11-28T01:41:13.228Z,20.80
2022-11-28T01:41:23.231Z,21.40
2022-11-28T01:41:33.225Z,21.60
2022-11-28T01:41:43.245Z,21.40
2022-11-28T01:41:53.281Z,20.70
2022-11-28T01:42:03.245Z,20.40
2022-11-28T01:42:13.228Z,20.60
2022-11-28T01:42:23.245Z,21.80
2022-11-28T01:42:33.227Z,22.00
2022-11-28T01:42:43.338Z,21.70
2022-11-28T01:42:53.245Z,21.60
2022-11-28T01:43:03.235Z,21.70
2022-11-28T01:43:13.280Z,22.30
2022-11-28T01:43:23.299Z,20.70
2022-11-28T01:43:33.255Z,19.90
2022-11-28T01:43:43.247Z,19.50
2022-11-28T01:43:53.222Z,20.20
2022-11-28T01:44:03.215Z,21.10
2022-11-28T01:44:13.217Z,21.60
2022-11-28T01:44:23.391Z,22.60
2022-11-28T01:44:33.235Z,22.80
2022-11-28T01:44:43.564Z,22.30
2022-11-28T01:44:53.213Z,21.50
2022-11-28T01:45:03.207Z,20.10
2022-11-28T01:45:13.208Z,20.60
2022-11-28T01:45:23.214Z,19.70
2022-11-28T01:45:33.213Z,21.10
2022-11-28T01:45:43.220Z,21.10
2022-11-28T01:45:53.211Z,22.00
2022-11-28T01:46:03.224Z,20.90
2022-11-28T01:46:13.250Z,20.10
2022-11-28T01:46:23.282Z,20.00
2022-11-28T01:46:33.287Z,20.30
2022-11-28T01:46:43.316Z,20.70
2022-11-28T01:46:53.955Z,20.60
2022-11-28T01:47:03.339Z,19.90
2022-11-28T01:47:13.240Z,19.40
2022-11-28T01:47:23.216Z,18.80
2022-11-28T01:47:33.269Z,19.50
2022-11-28T01:47:43.220Z,20.30
2022-11-28T01:47:53.205Z,21.40
2022-11-28T01:48:03.218Z,22.00
2022-11-28T01:48:13.234Z,22.00
2022-11-28T01:48:23.228Z,21.70
2022-11-28T01:48:33.195Z,21.80
2022-11-28T01:48:43.254Z,22.30
2022-11-28T01:48:53.211Z,22.30
2022-11-28T01:49:03.198Z,22.10
2022-11-28T01:49:13.192Z,22.60
2022-11-28T01:49:23.197Z,22.70
2022-11-28T01:49:33.275Z,21.70
2022-11-28T01:49:43.205Z,20.70
2022-11-28T01:49:53.207Z,20.50
2022-11-28T01:50:03.209Z,20.80
2022-11-28T01:50:13.205Z,20.30
2022-11-28T01:50:23.205Z,20.50
2022-11-28T01:50:33.186Z,20.60
2022-11-28T01:50:43.186Z,20.80
2022-11-28T01:50:53.201Z,20.80
2022-11-28T01:51:03.186Z,21.00
2022-11-28T01:51:13.239Z,21.70
2022-11-28T01:51:23.184Z,21.70
2022-11-28T01:51:33.214Z,22.90
2022-11-28T01:51:43.250Z,21.90
2022-11-28T01:51:53.186Z,23.10
2022-11-28T01:52:03.241Z,22.30
2022-11-28T01:52:13.188Z,23.00
2022-11-28T01:52:23.189Z,22.20
2022-11-28T01:52:33.889Z,22.40
2022-11-28T01:52:43.224Z,22.40
2022-11-28T01:52:53.178Z,22.00
2022-11-28T01:53:03.188Z,22.50
2022-11-28T01:53:13.213Z,22.50
2022-11-28T01:53:23.911Z,23.50
2022-11-28T01:53:33.197Z,23.00
2022-11-28T01:53:43.183Z,23.20
2022-11-28T01:53:53.174Z,22.40
2022-11-28T01:54:03.200Z,21.60
2022-11-28T01:54:13.195Z,22.00
2022-11-28T01:54:23.177Z,22.60
2022-11-28T01:54:33.181Z,22.70
2022-11-28T01:54:43.578Z,22.20
2022-11-28T01:54:53.207Z,22.10
2022-11-28T01:55:03.201Z,22.30
2022-11-28T01:55:13.165Z,22.90
2022-11-28T01:55:23.166Z,23.50
2022-11-28T01:55:33.170Z,24.20
2022-11-28T01:55:43.180Z,22.70
2022-11-28T01:55:53.896Z,21.60
2022-11-28T01:56:03.176Z,20.80
2022-11-28T01:56:13.169Z,21.90
2022-11-28T01:56:23.165Z,22.30
2022-11-28T01:56:33.178Z,22.50
2022-11-28T01:56:43.252Z,22.20
2022-11-28T01:56:53.169Z,22.20
2022-11-28T01:57:03.174Z,22.40
2022-11-28T01:57:13.885Z,22.40
2022-11-28T01:57:23.158Z,21.60
2022-11-28T01:57:33.156Z,20.80
2022-11-28T01:57:43.167Z,20.90
2022-11-28T01:57:53.273Z,21.60
2022-11-28T01:58:03.193Z,22.00
2022-11-28T01:58:13.160Z,23.00
2022-11-28T01:58:23.193Z,22.80
2022-11-28T01:58:33.162Z,22.70
2022-11-28T01:58:43.209Z,22.30
2022-11-28T01:58:53.152Z,22.00
2022-11-28T01:59:03.158Z,23.20
2022-11-28T01:59:13.191Z,21.70
2022-11-28T01:59:23.172Z,21.90
2022-11-28T01:59:33.172Z,19.90
2022-11-28T01:59:43.157Z,20.60
2022-11-28T01:59:53.224Z,21.30
2022-11-28T02:00:03.204Z,22.60
2022-11-28T02:00:13.160Z,21.50
2022-11-28T02:00:23.175Z,21.50
2022-11-28T02:00:33.232Z,20.70
2022-11-28T02:00:43.193Z,21.90
2022-11-28T02:00:53.304Z,20.90
2022-11-28T02:01:03.208Z,21.70
2022-11-28T02:01:13.250Z,22.30
2022-11-28T02:01:23.235Z,22.50
2022-11-28T02:01:33.161Z,22.40
2022-11-28T02:01:43.218Z,21.40
2022-11-28T02:01:53.191Z,22.60
2022-11-28T02:02:03.180Z,21.80
2022-11-28T02:02:13.259Z,21.80
2022-11-28T02:02:23.245Z,21.30
2022-11-28T02:02:33.205Z,21.80
2022-11-28T02:02:43.133Z,21.60
2022-11-28T02:02:53.265Z,21.40
2022-11-28T02:03:03.900Z,21.20
2022-11-28T02:03:13.153Z,22.30
2022-11-28T02:03:23.149Z,22.80
2022-11-28T02:03:33.138Z,24.10
2022-11-28T02:03:43.228Z,23.00
2022-11-28T02:03:53.145Z,22.90
2022-11-28T02:04:03.130Z,23.00
2022-11-28T02:04:13.145Z,23.50
2022-11-28T02:04:23.145Z,23.60
2022-11-28T02:04:33.198Z,22.90
2022-11-28T02:04:43.439Z,23.60
2022-11-28T02:04:53.157Z,23.40
2022-11-28T02:05:03.441Z,22.80
2022-11-28T02:05:13.894Z,22.80
2022-11-28T02:05:23.122Z,23.10
2022-11-28T02:05:33.136Z,23.90
2022-11-28T02:05:43.134Z,24.10
2022-11-28T02:05:53.124Z,24.70
2022-11-28T02:06:03.137Z,23.50
2022-11-28T02:06:13.154Z,22.30
2022-11-28T02:06:23.129Z,20.80
2022-11-28T02:06:33.123Z,21.50
2022-11-28T02:06:43.138Z,21.60
2022-11-28T02:06:53.118Z,22.50
2022-11-28T02:07:03.151Z,22.20
2022-11-28T02:07:13.183Z,22.80
2022-11-28T02:07:23.150Z,22.00
2022-11-28T02:07:33.167Z,21.90
2022-11-28T02:07:43.213Z,21.30
2022-11-28T02:07:53.194Z,22.40
2022-11-28T02:08:03.230Z,22.40
2022-11-28T02:08:13.119Z,22.10
2022-11-28T02:08:23.143Z,22.30
2022-11-28T02:08:33.135Z,22.30
2022-11-28T02:08:43.117Z,22.60